KSHD/SHD METAR and TAF weather

Enter ICAO airport designator
Station Type Date Time Source
KSHD METAR 2020/01/21 09:15 UTC NOAA

KSHD 210915Z AUTO 00000KT 10SM CLR M08/M13 A3044 RMK AO2 T10851126


Station Type Date Time Source
KSHD Decoded METAR 2020/01/21 09:15 UTC NOAA

Staunton / Shenandoah, VA, United States (KSHD) 38-16N 078-54W
Jan 21, 2020 - 04:15 AM EST / 2020.01.21 0915 UTC
Wind: Calm:0
Visibility: 10 mile(s):0
Sky conditions: clear
Temperature: 16.7 F (-8.5 C)
Dew Point: 9.3 F (-12.6 C)
Relative Humidity: 72%
Pressure (altimeter): 30.44 in. Hg (1030 hPa)
ob: KSHD 210915Z AUTO 00000KT 10SM CLR M08/M13 A3044 RMK AO2 T10851126
cycle: 9

Station Type Date Time Source
KSHD TAF UTC NOAA

Error!

Example: see airport list